Zalophus — WDG7231 — position and weather

sailwx.info

Track history (hours):
 
Tides and Currents Weather Stations Pressure Air Temp Water Temp Dewpoint Dewpoint Depression Visibility Wind Speed Wind Dir Waves Ship Positions

Zalophus

Owner: Golden Gate Scenic Steamship Corp, San Francisco, CA. More information available from US FCC via Universal Licensing System and Coast Guard Vessel Documentation Center.

Last reported at 2017-Oct-18 23:31 UTC. Time now 2017-Oct-18 23:39 UTC.
Position N 37°49' W 122°25'.

Length 47 m; draft 3 m.

Type: Passenger vessel. MMSI: 367565170.

Date/timePositionNaut miles runAvg speedWind from/ knotsBaromVisibWave heightAir tempDewpointWater temp
2017-Oct-18 23:31N 37°49' W 122°25'0 0.0
2017-Oct-18 23:01N 37°49' W 122°25'1 2.8
2017-Oct-18 22:30N 37°48' W 122°23'2 4.8
2017-Oct-18 22:01N 37°50' W 122°25'2 3.5
2017-Oct-18 21:30N 37°49' W 122°27'2 3.5
2017-Oct-18 21:00N 37°49' W 122°25'2 3.8
2017-Oct-18 20:30N 37°48' W 122°23'4 7.5
2017-Oct-18 20:00N 37°49' W 122°27'2 3.8
2017-Oct-18 19:30N 37°49' W 122°25'0 0.0
2017-Oct-18 03:06N 37°49' W 122°25'0 0.0
2017-Oct-18 03:00N 37°49' W 122°25'3 6.4
2017-Oct-18 02:30N 37°49' W 122°29'3 5.9
2017-Oct-18 02:00N 37°52' W 122°29'3 6.6
2017-Oct-18 01:31N 37°52' W 122°25'3 6.5
2017-Oct-18 01:00N 37°49' W 122°25'0 0.0
2017-Oct-18 00:30N 37°49' W 122°25'0 0.0
2017-Oct-18 00:01N 37°49' W 122°25'0 0.0
2017-Oct-17 23:30N 37°49' W 122°25'0 0.0
2017-Oct-17 23:00N 37°49' W 122°25'1 1.2
2017-Oct-17 22:31N 37°49' W 122°24'1 2.4
2017-Oct-17 22:00N 37°50' W 122°25'2 4.2
2017-Oct-17 21:30N 37°49' W 122°27'2 4.0
2017-Oct-17 21:00N 37°49' W 122°25'2 4.1
2017-Oct-17 20:31N 37°48' W 122°22'4 8.0
2017-Oct-17 20:00N 37°49' W 122°27'2 3.9
2017-Oct-17 19:30N 37°49' W 122°25'0 0.0
2017-Oct-17 03:04N 37°49' W 122°25'0 0.0
2017-Oct-17 03:00N 37°49' W 122°25'4 7.1
2017-Oct-17 02:30N 37°49' W 122°29'3 5.7
2017-Oct-17 02:00N 37°52' W 122°29'3 6.5
2017-Oct-17 01:30N 37°51' W 122°25'3 5.4
2017-Oct-17 01:00N 37°49' W 122°25'0 0.0
2017-Oct-17 00:30N 37°49' W 122°25'0 0.0
2017-Oct-17 00:00N 37°49' W 122°25'0 0.0
2017-Oct-16 23:30N 37°49' W 122°25'0 0.0
2017-Oct-16 23:00N 37°49' W 122°25'1 1.3
2017-Oct-16 22:30N 37°49' W 122°24'1 2.3
2017-Oct-16 22:00N 37°50' W 122°25'2 4.4
2017-Oct-16 21:30N 37°49' W 122°27'2 4.0
2017-Oct-16 21:00N 37°49' W 122°25'2 3.7
2017-Oct-16 20:30N 37°48' W 122°23'4 8.1
2017-Oct-16 20:00N 37°50' W 122°27'2 4.5
2017-Oct-16 19:30N 37°49' W 122°25'0 0.0
2017-Oct-16 03:07N 37°49' W 122°25'0 0.0
2017-Oct-16 03:01N 37°49' W 122°25'4 7.4
2017-Oct-16 02:31N 37°49' W 122°30'3 5.8
2017-Oct-16 02:01N 37°52' W 122°29'3 6.4
2017-Oct-16 01:30N 37°52' W 122°25'3 6.7
2017-Oct-16 01:00N 37°49' W 122°25'0 0.0
2017-Oct-16 00:30N 37°49' W 122°25'0 0.0
2017-Oct-16 00:00N 37°49' W 122°25'0 0.0
2017-Oct-15 23:30N 37°49' W 122°25'0 0.0
2017-Oct-15 23:00N 37°49' W 122°25'1 2.2
2017-Oct-15 22:31N 37°48' W 122°24'2 4.5
2017-Oct-15 22:00N 37°50' W 122°26'1 2.7
2017-Oct-15 21:31N 37°49' W 122°26'1 2.3
2017-Oct-15 21:00N 37°49' W 122°25'1 2.9
2017-Oct-15 20:30N 37°49' W 122°23'4 8.1
2017-Oct-15 20:00N 37°49' W 122°28'3 5.4
2017-Oct-15 19:30N 37°49' W 122°25'0 0.0
2017-Oct-15 19:00N 37°49' W 122°25'0 0.0
2017-Oct-15 18:30N 37°49' W 122°25'3 6.4
2017-Oct-15 18:01N 37°49' W 122°29'3 6.4
2017-Oct-15 17:30N 37°49' W 122°25'0 0.0
2017-Oct-15 03:06N 37°49' W 122°25'0 0.0
2017-Oct-15 03:00N 37°49' W 122°25'3 5.7
2017-Oct-15 02:30N 37°49' W 122°28'3 5.6
2017-Oct-15 02:00N 37°52' W 122°29'3 6.1
2017-Oct-15 01:30N 37°52' W 122°25'3 6.1
2017-Oct-15 01:00N 37°49' W 122°25'0 0.0
2017-Oct-15 00:30N 37°49' W 122°25'0 0.0
2017-Oct-15 00:00N 37°49' W 122°25'0 0.0
2017-Oct-14 23:30N 37°49' W 122°25'0 0.0
2017-Oct-14 23:00N 37°49' W 122°25'1 1.5
2017-Oct-14 22:30N 37°48' W 122°24'1 2.1
2017-Oct-14 22:00N 37°49' W 122°25'2 4.5
2017-Oct-14 21:30N 37°49' W 122°27'2 4.0
2017-Oct-14 21:00N 37°49' W 122°25'2 3.9
2017-Oct-14 20:31N 37°48' W 122°23'4 8.3
2017-Oct-14 20:00N 37°49' W 122°28'2 4.4
2017-Oct-14 19:30N 37°49' W 122°25'0 0.0
2017-Oct-14 03:16N 37°49' W 122°25'0 0.0
2017-Oct-14 03:00N 37°49' W 122°25'3 5.5
2017-Oct-14 02:30N 37°49' W 122°28'3 6.1
2017-Oct-14 02:00N 37°52' W 122°29'3 6.4
2017-Oct-14 01:30N 37°52' W 122°25'3 6.6
2017-Oct-14 01:01N 37°49' W 122°25'0 0.0
2017-Oct-14 00:30N 37°49' W 122°25'0 0.0
2017-Oct-14 00:00N 37°49' W 122°25'0 0.0
2017-Oct-13 23:30N 37°49' W 122°25'0 0.0
2017-Oct-13 23:00N 37°49' W 122°25'1 1.7
2017-Oct-13 22:30N 37°48' W 122°24'1 1.8
2017-Oct-13 22:00N 37°49' W 122°24'3 5.1
2017-Oct-13 21:30N 37°49' W 122°27'2 4.0
2017-Oct-13 21:00N 37°49' W 122°25'2 3.9
2017-Oct-13 20:30N 37°48' W 122°23'4 8.0
2017-Oct-13 20:00N 37°49' W 122°27'2 4.2
2017-Oct-13 19:30N 37°49' W 122°25'0 0.0
2017-Oct-13 03:07N 37°49' W 122°25'0 0.1
2017-Oct-13 03:00N 37°49' W 122°25'3 6.2
2017-Oct-13 02:30N 37°49' W 122°29'3 5.8
2017-Oct-13 02:00N 37°52' W 122°29'3 6.8
2017-Oct-13 01:31N 37°51' W 122°25'3 5.6
2017-Oct-13 01:00N 37°49' W 122°25'0 0.0
2017-Oct-13 00:30N 37°49' W 122°25'0 0.0
2017-Oct-13 00:00N 37°49' W 122°25'0 0.0
2017-Oct-12 23:30N 37°49' W 122°25'0 0.0
2017-Oct-12 23:00N 37°49' W 122°25'1 2.0
2017-Oct-12 22:30N 37°48' W 122°24'2 3.3
2017-Oct-12 22:01N 37°50' W 122°25'2 3.3
2017-Oct-12 21:30N 37°49' W 122°27'2 3.2
2017-Oct-12 21:00N 37°49' W 122°25'2 3.6
2017-Oct-12 20:30N 37°48' W 122°23'4 8.2
2017-Oct-12 20:00N 37°49' W 122°28'2 4.6
2017-Oct-12 19:30N 37°49' W 122°25'0 0.0
2017-Oct-12 19:00N 37°49' W 122°25'0 0.0
2017-Oct-12 18:30N 37°49' W 122°25'0 0.0
2017-Oct-12 18:00N 37°49' W 122°25'0 0.0
2017-Oct-12 17:30N 37°49' W 122°25'0 0.0
2017-Oct-12 17:00N 37°49' W 122°25'0 0.0
2017-Oct-12 16:30N 37°49' W 122°25'0 0.0
2017-Oct-12 16:00N 37°49' W 122°25'0 0.0
2017-Oct-12 15:30N 37°49' W 122°25'0 0.0
2017-Oct-12 15:00N 37°49' W 122°25'0 0.0
2017-Oct-12 14:30N 37°49' W 122°25'0 0.0
2017-Oct-12 14:00N 37°49' W 122°25'0 0.0
2017-Oct-12 03:04N 37°49' W 122°25'0 0.0
2017-Oct-12 03:00N 37°49' W 122°25'2 4.9
2017-Oct-12 02:31N 37°49' W 122°28'3 6.2
2017-Oct-12 02:00N 37°52' W 122°29'3 6.5
2017-Oct-12 01:30N 37°51' W 122°25'3 5.7
2017-Oct-12 01:00N 37°49' W 122°25'0 0.0
2017-Oct-12 00:30N 37°49' W 122°25'0 0.0
2017-Oct-12 00:01N 37°49' W 122°25'0 0.0
2017-Oct-11 23:30N 37°49' W 122°25'0 0.0
2017-Oct-11 23:01N 37°49' W 122°25'1 1.5
2017-Oct-11 22:31N 37°48' W 122°24'1 2.5
2017-Oct-11 22:01N 37°49' W 122°25'2 3.9
2017-Oct-11 21:31N 37°49' W 122°27'2 3.6
2017-Oct-11 21:00N 37°49' W 122°25'2 3.9
2017-Oct-11 20:30N 37°48' W 122°23'5 9.1
2017-Oct-11 20:01N 37°49' W 122°28'3 5.2
2017-Oct-11 19:31N 37°49' W 122°25'0 0.0
2017-Oct-11 00:00N 37°49' W 122°25'0 0.0
2017-Oct-10 23:30N 37°49' W 122°25'0 0.0
2017-Oct-10 23:00N 37°49' W 122°25'1 1.3
2017-Oct-10 22:30N 37°49' W 122°24'1 2.3
2017-Oct-10 22:00N 37°50' W 122°25'2 3.6
2017-Oct-10 21:30N 37°49' W 122°27'2 3.3
2017-Oct-10 21:00N 37°49' W 122°25'2 4.3
2017-Oct-10 20:30N 37°48' W 122°22'5 9.0
2017-Oct-10 20:00N 37°49' W 122°28'2 4.8
2017-Oct-10 19:30N 37°49' W 122°25'0 0.0
2017-Oct-10 03:08N 37°49' W 122°25'0 0.0
2017-Oct-10 03:00N 37°49' W 122°25'3 6.4
2017-Oct-10 02:30N 37°49' W 122°29'3 5.6
2017-Oct-10 02:00N 37°52' W 122°29'3 6.4
2017-Oct-10 01:30N 37°52' W 122°25'3 6.0
2017-Oct-10 01:00N 37°49' W 122°25'0 0.0
2017-Oct-10 00:30N 37°49' W 122°25'0 0.0
2017-Oct-10 00:00N 37°49' W 122°25'0 0.0
2017-Oct-09 23:30N 37°49' W 122°25'0 0.0
2017-Oct-09 23:00N 37°49' W 122°25'1 1.2
2017-Oct-09 22:30N 37°49' W 122°24'1 1.8
2017-Oct-09 22:00N 37°49' W 122°25'2 4.5
2017-Oct-09 21:30N 37°49' W 122°27'2 3.9
2017-Oct-09 21:00N 37°49' W 122°25'2 3.9
2017-Oct-09 20:30N 37°48' W 122°23'5 9.2
2017-Oct-09 20:00N 37°50' W 122°28'3 5.3
2017-Oct-09 19:30N 37°49' W 122°25'0 0.0
2017-Oct-09 03:12N 37°49' W 122°25'0 0.3
2017-Oct-09 03:01N 37°49' W 122°25'3 6.8
2017-Oct-09 02:31N 37°49' W 122°29'3 5.4
2017-Oct-09 02:00N 37°52' W 122°29'3 6.4
2017-Oct-09 01:31N 37°51' W 122°25'3 5.5
2017-Oct-09 01:00N 37°49' W 122°25'0 0.0
2017-Oct-09 00:30N 37°49' W 122°25'0 0.0
2017-Oct-09 00:00N 37°49' W 122°25'  
Track history (hours):
 
Tides and Currents Weather Stations Pressure Air Temp Water Temp Dewpoint Dewpoint Depression Visibility Wind Speed Wind Dir Waves Ship Positions

Zalophus

Owner: Golden Gate Scenic Steamship Corp, San Francisco, CA. More information available from US FCC via Universal Licensing System and Coast Guard Vessel Documentation Center.

Last reported at 2017-Oct-18 23:31 UTC. Time now 2017-Oct-18 23:39 UTC.
Position N 37°49' W 122°25'.

Length 47 m; draft 3 m.

Type: Passenger vessel. MMSI: 367565170.

Date/timePositionNaut miles runAvg speedWind from/ knotsBaromVisibWave heightAir tempDewpointWater temp
2017-Oct-18 23:31N 37°49' W 122°25'0 0.0
2017-Oct-18 23:01N 37°49' W 122°25'1 2.8
2017-Oct-18 22:30N 37°48' W 122°23'2 4.8
2017-Oct-18 22:01N 37°50' W 122°25'2 3.5
2017-Oct-18 21:30N 37°49' W 122°27'2 3.5
2017-Oct-18 21:00N 37°49' W 122°25'2 3.8
2017-Oct-18 20:30N 37°48' W 122°23'4 7.5
2017-Oct-18 20:00N 37°49' W 122°27'2 3.8
2017-Oct-18 19:30N 37°49' W 122°25'0 0.0
2017-Oct-18 03:06N 37°49' W 122°25'0 0.0
2017-Oct-18 03:00N 37°49' W 122°25'3 6.4
2017-Oct-18 02:30N 37°49' W 122°29'3 5.9
2017-Oct-18 02:00N 37°52' W 122°29'3 6.6
2017-Oct-18 01:31N 37°52' W 122°25'3 6.5
2017-Oct-18 01:00N 37°49' W 122°25'0 0.0
2017-Oct-18 00:30N 37°49' W 122°25'0 0.0
2017-Oct-18 00:01N 37°49' W 122°25'0 0.0
2017-Oct-17 23:30N 37°49' W 122°25'0 0.0
2017-Oct-17 23:00N 37°49' W 122°25'1 1.2
2017-Oct-17 22:31N 37°49' W 122°24'1 2.4
2017-Oct-17 22:00N 37°50' W 122°25'2 4.2
2017-Oct-17 21:30N 37°49' W 122°27'2 4.0
2017-Oct-17 21:00N 37°49' W 122°25'2 4.1
2017-Oct-17 20:31N 37°48' W 122°22'4 8.0
2017-Oct-17 20:00N 37°49' W 122°27'2 3.9
2017-Oct-17 19:30N 37°49' W 122°25'0 0.0
2017-Oct-17 03:04N 37°49' W 122°25'0 0.0
2017-Oct-17 03:00N 37°49' W 122°25'4 7.1
2017-Oct-17 02:30N 37°49' W 122°29'3 5.7
2017-Oct-17 02:00N 37°52' W 122°29'3 6.5
2017-Oct-17 01:30N 37°51' W 122°25'3 5.4
2017-Oct-17 01:00N 37°49' W 122°25'0 0.0
2017-Oct-17 00:30N 37°49' W 122°25'0 0.0
2017-Oct-17 00:00N 37°49' W 122°25'0 0.0
2017-Oct-16 23:30N 37°49' W 122°25'0 0.0
2017-Oct-16 23:00N 37°49' W 122°25'1 1.3
2017-Oct-16 22:30N 37°49' W 122°24'1 2.3
2017-Oct-16 22:00N 37°50' W 122°25'2 4.4
2017-Oct-16 21:30N 37°49' W 122°27'2 4.0
2017-Oct-16 21:00N 37°49' W 122°25'2 3.7
2017-Oct-16 20:30N 37°48' W 122°23'4 8.1
2017-Oct-16 20:00N 37°50' W 122°27'2 4.5
2017-Oct-16 19:30N 37°49' W 122°25'0 0.0
2017-Oct-16 03:07N 37°49' W 122°25'0 0.0
2017-Oct-16 03:01N 37°49' W 122°25'4 7.4
2017-Oct-16 02:31N 37°49' W 122°30'3 5.8
2017-Oct-16 02:01N 37°52' W 122°29'3 6.4
2017-Oct-16 01:30N 37°52' W 122°25'3 6.7
2017-Oct-16 01:00N 37°49' W 122°25'0 0.0
2017-Oct-16 00:30N 37°49' W 122°25'0 0.0
2017-Oct-16 00:00N 37°49' W 122°25'0 0.0
2017-Oct-15 23:30N 37°49' W 122°25'0 0.0
2017-Oct-15 23:00N 37°49' W 122°25'1 2.2
2017-Oct-15 22:31N 37°48' W 122°24'2 4.5
2017-Oct-15 22:00N 37°50' W 122°26'1 2.7
2017-Oct-15 21:31N 37°49' W 122°26'1 2.3
2017-Oct-15 21:00N 37°49' W 122°25'1 2.9
2017-Oct-15 20:30N 37°49' W 122°23'4 8.1
2017-Oct-15 20:00N 37°49' W 122°28'3 5.4
2017-Oct-15 19:30N 37°49' W 122°25'0 0.0
2017-Oct-15 19:00N 37°49' W 122°25'0 0.0
2017-Oct-15 18:30N 37°49' W 122°25'3 6.4
2017-Oct-15 18:01N 37°49' W 122°29'3 6.4
2017-Oct-15 17:30N 37°49' W 122°25'0 0.0
2017-Oct-15 03:06N 37°49' W 122°25'0 0.0
2017-Oct-15 03:00N 37°49' W 122°25'3 5.7
2017-Oct-15 02:30N 37°49' W 122°28'3 5.6
2017-Oct-15 02:00N 37°52' W 122°29'3 6.1
2017-Oct-15 01:30N 37°52' W 122°25'3 6.1
2017-Oct-15 01:00N 37°49' W 122°25'0 0.0
2017-Oct-15 00:30N 37°49' W 122°25'0 0.0
2017-Oct-15 00:00N 37°49' W 122°25'0 0.0
2017-Oct-14 23:30N 37°49' W 122°25'0 0.0
2017-Oct-14 23:00N 37°49' W 122°25'1 1.5
2017-Oct-14 22:30N 37°48' W 122°24'1 2.1
2017-Oct-14 22:00N 37°49' W 122°25'2 4.5
2017-Oct-14 21:30N 37°49' W 122°27'2 4.0
2017-Oct-14 21:00N 37°49' W 122°25'2 3.9
2017-Oct-14 20:31N 37°48' W 122°23'4 8.3
2017-Oct-14 20:00N 37°49' W 122°28'2 4.4
2017-Oct-14 19:30N 37°49' W 122°25'0 0.0
2017-Oct-14 03:16N 37°49' W 122°25'0 0.0
2017-Oct-14 03:00N 37°49' W 122°25'3 5.5
2017-Oct-14 02:30N 37°49' W 122°28'3 6.1
2017-Oct-14 02:00N 37°52' W 122°29'3 6.4
2017-Oct-14 01:30N 37°52' W 122°25'3 6.6
2017-Oct-14 01:01N 37°49' W 122°25'0 0.0
2017-Oct-14 00:30N 37°49' W 122°25'0 0.0
2017-Oct-14 00:00N 37°49' W 122°25'0 0.0
2017-Oct-13 23:30N 37°49' W 122°25'0 0.0
2017-Oct-13 23:00N 37°49' W 122°25'1 1.7
2017-Oct-13 22:30N 37°48' W 122°24'1 1.8
2017-Oct-13 22:00N 37°49' W 122°24'3 5.1
2017-Oct-13 21:30N 37°49' W 122°27'2 4.0
2017-Oct-13 21:00N 37°49' W 122°25'2 3.9
2017-Oct-13 20:30N 37°48' W 122°23'4 8.0
2017-Oct-13 20:00N 37°49' W 122°27'2 4.2
2017-Oct-13 19:30N 37°49' W 122°25'0 0.0
2017-Oct-13 03:07N 37°49' W 122°25'0 0.1
2017-Oct-13 03:00N 37°49' W 122°25'3 6.2
2017-Oct-13 02:30N 37°49' W 122°29'3 5.8
2017-Oct-13 02:00N 37°52' W 122°29'3 6.8
2017-Oct-13 01:31N 37°51' W 122°25'3 5.6
2017-Oct-13 01:00N 37°49' W 122°25'0 0.0
2017-Oct-13 00:30N 37°49' W 122°25'0 0.0
2017-Oct-13 00:00N 37°49' W 122°25'0 0.0
2017-Oct-12 23:30N 37°49' W 122°25'0 0.0
2017-Oct-12 23:00N 37°49' W 122°25'1 2.0
2017-Oct-12 22:30N 37°48' W 122°24'2 3.3
2017-Oct-12 22:01N 37°50' W 122°25'2 3.3
2017-Oct-12 21:30N 37°49' W 122°27'2 3.2
2017-Oct-12 21:00N 37°49' W 122°25'2 3.6
2017-Oct-12 20:30N 37°48' W 122°23'4 8.2
2017-Oct-12 20:00N 37°49' W 122°28'2 4.6
2017-Oct-12 19:30N 37°49' W 122°25'0 0.0
2017-Oct-12 19:00N 37°49' W 122°25'0 0.0
2017-Oct-12 18:30N 37°49' W 122°25'0 0.0
2017-Oct-12 18:00N 37°49' W 122°25'0 0.0
2017-Oct-12 17:30N 37°49' W 122°25'0 0.0
2017-Oct-12 17:00N 37°49' W 122°25'0 0.0
2017-Oct-12 16:30N 37°49' W 122°25'0 0.0
2017-Oct-12 16:00N 37°49' W 122°25'0 0.0
2017-Oct-12 15:30N 37°49' W 122°25'0 0.0
2017-Oct-12 15:00N 37°49' W 122°25'0 0.0
2017-Oct-12 14:30N 37°49' W 122°25'0 0.0
2017-Oct-12 14:00N 37°49' W 122°25'0 0.0
2017-Oct-12 03:04N 37°49' W 122°25'0 0.0
2017-Oct-12 03:00N 37°49' W 122°25'2 4.9
2017-Oct-12 02:31N 37°49' W 122°28'3 6.2
2017-Oct-12 02:00N 37°52' W 122°29'3 6.5
2017-Oct-12 01:30N 37°51' W 122°25'3 5.7
2017-Oct-12 01:00N 37°49' W 122°25'0 0.0
2017-Oct-12 00:30N 37°49' W 122°25'0 0.0
2017-Oct-12 00:01N 37°49' W 122°25'0 0.0
2017-Oct-11 23:30N 37°49' W 122°25'0 0.0
2017-Oct-11 23:01N 37°49' W 122°25'1 1.5
2017-Oct-11 22:31N 37°48' W 122°24'1 2.5
2017-Oct-11 22:01N 37°49' W 122°25'2 3.9
2017-Oct-11 21:31N 37°49' W 122°27'2 3.6
2017-Oct-11 21:00N 37°49' W 122°25'2 3.9
2017-Oct-11 20:30N 37°48' W 122°23'5 9.1
2017-Oct-11 20:01N 37°49' W 122°28'3 5.2
2017-Oct-11 19:31N 37°49' W 122°25'0 0.0
2017-Oct-11 00:00N 37°49' W 122°25'0 0.0
2017-Oct-10 23:30N 37°49' W 122°25'0 0.0
2017-Oct-10 23:00N 37°49' W 122°25'1 1.3
2017-Oct-10 22:30N 37°49' W 122°24'1 2.3
2017-Oct-10 22:00N 37°50' W 122°25'2 3.6
2017-Oct-10 21:30N 37°49' W 122°27'2 3.3
2017-Oct-10 21:00N 37°49' W 122°25'2 4.3
2017-Oct-10 20:30N 37°48' W 122°22'5 9.0
2017-Oct-10 20:00N 37°49' W 122°28'2 4.8
2017-Oct-10 19:30N 37°49' W 122°25'0 0.0
2017-Oct-10 03:08N 37°49' W 122°25'0 0.0
2017-Oct-10 03:00N 37°49' W 122°25'3 6.4
2017-Oct-10 02:30N 37°49' W 122°29'3 5.6
2017-Oct-10 02:00N 37°52' W 122°29'3 6.4
2017-Oct-10 01:30N 37°52' W 122°25'3 6.0
2017-Oct-10 01:00N 37°49' W 122°25'0 0.0
2017-Oct-10 00:30N 37°49' W 122°25'0 0.0
2017-Oct-10 00:00N 37°49' W 122°25'0 0.0
2017-Oct-09 23:30N 37°49' W 122°25'0 0.0
2017-Oct-09 23:00N 37°49' W 122°25'1 1.2
2017-Oct-09 22:30N 37°49' W 122°24'1 1.8
2017-Oct-09 22:00N 37°49' W 122°25'2 4.5
2017-Oct-09 21:30N 37°49' W 122°27'2 3.9
2017-Oct-09 21:00N 37°49' W 122°25'2 3.9
2017-Oct-09 20:30N 37°48' W 122°23'5 9.2
2017-Oct-09 20:00N 37°50' W 122°28'3 5.3
2017-Oct-09 19:30N 37°49' W 122°25'0 0.0
2017-Oct-09 03:12N 37°49' W 122°25'0 0.3
2017-Oct-09 03:01N 37°49' W 122°25'3 6.8
2017-Oct-09 02:31N 37°49' W 122°29'3 5.4
2017-Oct-09 02:00N 37°52' W 122°29'3 6.4
2017-Oct-09 01:31N 37°51' W 122°25'3 5.5
2017-Oct-09 01:00N 37°49' W 122°25'0 0.0
2017-Oct-09 00:30N 37°49' W 122°25'0 0.0
2017-Oct-09 00:00N 37°49' W 122°25'  

Dump ship's entire track history